createdAt,value
2018-12-22T00:02:19.102Z,11.60
2018-12-22T00:04:46.040Z,11.70
2018-12-22T00:07:13.007Z,11.60
2018-12-22T00:09:39.957Z,11.60
2018-12-22T00:12:06.930Z,11.60
2018-12-22T00:14:33.868Z,11.60
2018-12-22T00:17:00.862Z,11.60
2018-12-22T00:19:27.816Z,11.70
2018-12-22T00:21:54.772Z,11.60
2018-12-22T00:24:21.729Z,11.60
2018-12-22T00:26:48.681Z,11.60
2018-12-22T00:29:15.625Z,11.60
2018-12-22T00:31:42.601Z,11.60
2018-12-22T00:34:09.551Z,11.60
2018-12-22T00:36:36.501Z,11.50
2018-12-22T00:39:05.060Z,11.60
2018-12-22T00:41:32.021Z,11.70
2018-12-22T00:43:58.962Z,11.60
2018-12-22T00:46:25.940Z,11.70
2018-12-22T00:48:52.898Z,11.80
2018-12-22T00:51:19.857Z,11.70
2018-12-22T00:53:46.845Z,11.70
2018-12-22T00:56:13.788Z,11.70
2018-12-22T00:58:40.737Z,11.80
2018-12-22T01:01:08.145Z,11.80
2018-12-22T01:03:35.117Z,11.70
2018-12-22T01:06:02.078Z,11.60
2018-12-22T01:08:29.045Z,11.70
2018-12-22T01:10:55.991Z,11.60
2018-12-22T01:13:22.997Z,11.60
2018-12-22T01:15:49.980Z,11.60
2018-12-22T01:18:16.954Z,11.60
2018-12-22T01:20:43.915Z,11.50
2018-12-22T01:23:10.991Z,11.50
2018-12-22T01:25:37.852Z,11.50
2018-12-22T01:28:04.801Z,11.40
2018-12-22T01:30:31.794Z,11.40
2018-12-22T01:32:58.750Z,11.40
2018-12-22T01:35:25.707Z,11.40
2018-12-22T01:37:52.696Z,11.30
2018-12-22T01:40:19.638Z,11.30
2018-12-22T01:42:46.588Z,11.30
2018-12-22T01:45:13.558Z,11.40
2018-12-22T01:47:40.524Z,11.40
2018-12-22T01:50:07.467Z,11.40
2018-12-22T01:52:34.461Z,11.40
2018-12-22T01:55:01.390Z,11.40
2018-12-22T01:57:28.326Z,11.40
2018-12-22T01:59:55.298Z,11.40
2018-12-22T02:02:22.506Z,11.40
2018-12-22T02:04:49.448Z,11.40
2018-12-22T02:07:16.434Z,11.30
2018-12-22T02:09:43.393Z,11.40
2018-12-22T02:12:10.342Z,11.40
2018-12-22T02:14:37.284Z,11.40
2018-12-22T02:17:04.250Z,11.40
2018-12-22T02:19:31.212Z,11.40
2018-12-22T02:21:58.179Z,11.40
2018-12-22T02:24:25.135Z,11.40
2018-12-22T02:26:52.087Z,11.40
2018-12-22T02:29:19.063Z,11.40
2018-12-22T02:31:46.015Z,11.40
2018-12-22T02:34:13.017Z,11.40
2018-12-22T02:36:40.001Z,11.40
2018-12-22T02:39:06.955Z,11.40
2018-12-22T02:41:33.905Z,11.40
2018-12-22T02:44:00.874Z,11.30
2018-12-22T02:46:27.836Z,11.30
2018-12-22T02:48:54.804Z,11.30
2018-12-22T02:51:21.767Z,11.30
2018-12-22T02:53:48.736Z,11.30
2018-12-22T02:56:15.696Z,11.30
2018-12-22T02:58:42.660Z,10.90
2018-12-22T03:01:09.686Z,11.30
2018-12-22T03:03:37.025Z,11.40
2018-12-22T03:06:04.005Z,11.30
2018-12-22T03:08:31.069Z,11.40
2018-12-22T03:10:58.024Z,11.40
2018-12-22T03:13:25.001Z,11.40
2018-12-22T03:15:51.954Z,11.40
2018-12-22T03:18:18.893Z,11.40
2018-12-22T03:20:45.868Z,11.30
2018-12-22T03:23:12.825Z,11.30
2018-12-22T03:25:39.767Z,11.30
2018-12-22T03:28:06.728Z,11.30
2018-12-22T03:30:33.677Z,11.30
2018-12-22T03:33:00.670Z,11.30
2018-12-22T03:35:27.618Z,11.30
2018-12-22T03:37:54.574Z,11.30
2018-12-22T03:40:21.542Z,11.30
2018-12-22T03:42:48.514Z,11.20
2018-12-22T03:45:15.453Z,11.20
2018-12-22T03:47:42.418Z,11.20
2018-12-22T03:50:09.383Z,11.20
2018-12-22T03:52:36.370Z,11.10
2018-12-22T03:55:03.328Z,11.10
2018-12-22T03:57:30.282Z,11.10
2018-12-22T03:59:57.335Z,11.10
2018-12-22T04:02:24.279Z,11.10
2018-12-22T04:04:51.851Z,11.10
2018-12-22T04:07:18.787Z,11.20
2018-12-22T04:09:45.746Z,11.20
2018-12-22T04:12:12.724Z,11.20
2018-12-22T04:14:39.690Z,11.20
2018-12-22T04:17:06.655Z,11.20
2018-12-22T04:19:33.614Z,11.20
2018-12-22T04:22:00.550Z,11.30
2018-12-22T04:24:27.485Z,10.80
2018-12-22T04:26:54.438Z,11.30
2018-12-22T04:29:21.371Z,11.20
2018-12-22T04:31:50.681Z,11.40
2018-12-22T04:34:15.289Z,11.40
2018-12-22T04:36:42.236Z,11.30
2018-12-22T04:39:09.170Z,11.40
2018-12-22T04:41:36.127Z,11.40
2018-12-22T04:44:03.086Z,11.30
2018-12-22T04:46:30.023Z,11.30
2018-12-22T04:48:56.989Z,11.30
2018-12-22T04:51:23.923Z,11.30
2018-12-22T04:53:50.872Z,11.30
2018-12-22T04:56:17.857Z,11.30
2018-12-22T04:58:44.801Z,11.30
2018-12-22T05:01:11.745Z,11.30
2018-12-22T05:03:38.713Z,11.30
2018-12-22T05:06:06.196Z,11.30
2018-12-22T05:08:33.189Z,11.40
2018-12-22T05:11:00.142Z,11.40
2018-12-22T05:13:27.070Z,11.40
2018-12-22T05:15:53.996Z,11.40
2018-12-22T05:18:20.983Z,11.40
2018-12-22T05:20:47.948Z,11.50
2018-12-22T05:23:14.871Z,11.50
2018-12-22T05:25:41.836Z,11.50
2018-12-22T05:28:08.765Z,11.50
2018-12-22T05:30:35.708Z,11.50
2018-12-22T05:33:02.680Z,11.50
2018-12-22T05:35:29.628Z,11.60
2018-12-22T05:37:56.548Z,11.60
2018-12-22T05:40:23.511Z,11.60
2018-12-22T05:42:50.469Z,11.60
2018-12-22T05:45:17.423Z,11.60
2018-12-22T05:47:44.371Z,11.60
2018-12-22T05:50:11.313Z,11.70
2018-12-22T05:52:38.265Z,11.70
2018-12-22T05:55:05.250Z,11.70
2018-12-22T05:57:32.196Z,11.70
2018-12-22T06:00:00.669Z,11.70
2018-12-22T06:02:26.153Z,11.70
2018-12-22T06:04:53.092Z,11.70
2018-12-22T06:07:20.705Z,11.70
2018-12-22T06:09:47.721Z,11.70
2018-12-22T06:12:14.660Z,11.70
2018-12-22T06:14:41.852Z,11.70
2018-12-22T06:17:08.865Z,11.70
2018-12-22T06:19:35.820Z,11.70
2018-12-22T06:22:02.785Z,11.70
2018-12-22T06:24:29.768Z,11.60
2018-12-22T06:26:56.723Z,11.30
2018-12-22T06:29:23.705Z,11.60
2018-12-22T06:31:50.611Z,11.60
2018-12-22T06:34:17.665Z,11.50
2018-12-22T06:36:44.608Z,11.50
2018-12-22T06:39:11.575Z,11.40
2018-12-22T06:41:38.548Z,11.30
2018-12-22T06:44:05.532Z,11.20
2018-12-22T06:46:32.508Z,11.20
2018-12-22T06:48:59.468Z,11.20
2018-12-22T06:51:26.414Z,11.10
2018-12-22T06:53:53.381Z,11.10
2018-12-22T06:56:20.324Z,11.00
2018-12-22T06:58:47.274Z,10.90
2018-12-22T07:01:14.271Z,10.80
2018-12-22T07:03:41.262Z,10.80
2018-12-22T07:06:08.213Z,10.70
2018-12-22T07:08:35.518Z,10.70
2018-12-22T07:11:02.487Z,10.60
2018-12-22T07:13:29.441Z,10.60
2018-12-22T07:15:56.407Z,10.60
2018-12-22T07:18:23.366Z,10.60
2018-12-22T07:20:50.297Z,10.60
2018-12-22T07:23:17.263Z,10.60
2018-12-22T07:25:44.188Z,10.70
2018-12-22T07:28:11.132Z,10.70
2018-12-22T07:30:38.093Z,10.70
2018-12-22T07:33:05.038Z,10.80
2018-12-22T07:35:31.989Z,10.80
2018-12-22T07:37:58.994Z,10.90
2018-12-22T07:40:25.939Z,10.90
2018-12-22T07:42:52.897Z,10.90
2018-12-22T07:45:19.918Z,10.80
2018-12-22T07:47:46.843Z,10.80
2018-12-22T07:50:13.771Z,10.70
2018-12-22T07:52:40.749Z,10.70
2018-12-22T07:55:07.703Z,10.70
2018-12-22T07:57:34.676Z,10.60
2018-12-22T08:00:01.641Z,10.60
2018-12-22T08:02:28.580Z,10.40
2018-12-22T08:04:55.515Z,10.30
2018-12-22T08:07:22.498Z,10.30
2018-12-22T08:09:49.868Z,10.30
2018-12-22T08:12:16.869Z,10.30
2018-12-22T08:14:43.888Z,10.30
2018-12-22T08:17:10.834Z,10.30
2018-12-22T08:19:37.829Z,10.40
2018-12-22T08:22:04.828Z,10.40
2018-12-22T08:24:31.837Z,10.50
2018-12-22T08:26:58.853Z,10.40
2018-12-22T08:29:25.856Z,10.50
2018-12-22T08:31:52.873Z,10.60
2018-12-22T08:34:19.823Z,10.60
2018-12-22T08:36:46.775Z,10.50
2018-12-22T08:39:13.727Z,10.60
2018-12-22T08:41:40.659Z,10.90
2018-12-22T08:44:07.628Z,10.70
2018-12-22T08:46:34.551Z,10.80
2018-12-22T08:49:01.476Z,10.80
2018-12-22T08:51:28.484Z,10.90
2018-12-22T08:53:55.435Z,10.90
2018-12-22T08:56:22.383Z,10.90
2018-12-22T08:58:49.333Z,10.90
2018-12-22T09:01:16.260Z,10.90
2018-12-22T09:03:43.204Z,10.80
2018-12-22T09:06:10.173Z,10.80
2018-12-22T09:08:37.105Z,10.90
2018-12-22T09:11:04.460Z,10.90
2018-12-22T09:13:31.409Z,10.80
2018-12-22T09:15:58.352Z,10.80
2018-12-22T09:18:25.278Z,10.80
2018-12-22T09:20:52.258Z,10.90
2018-12-22T09:23:19.212Z,10.90
2018-12-22T09:25:46.147Z,10.80
2018-12-22T09:28:13.144Z,10.90
2018-12-22T09:30:40.088Z,10.80
2018-12-22T09:33:07.064Z,10.90
2018-12-22T09:35:34.038Z,10.80
2018-12-22T09:38:00.979Z,10.70
2018-12-22T09:40:27.908Z,10.70
2018-12-22T09:42:54.918Z,10.70
2018-12-22T09:45:21.843Z,10.70
2018-12-22T09:47:48.784Z,10.80
2018-12-22T09:50:15.731Z,10.70
2018-12-22T09:52:42.768Z,10.70
2018-12-22T09:55:09.695Z,10.70
2018-12-22T09:57:36.703Z,10.70
2018-12-22T10:00:05.584Z,10.70
2018-12-22T10:02:32.528Z,10.60
2018-12-22T10:04:59.527Z,10.60
2018-12-22T10:07:26.472Z,10.60
2018-12-22T10:09:53.477Z,10.70
2018-12-22T10:12:21.035Z,10.70
2018-12-22T10:14:48.001Z,10.70
2018-12-22T10:17:15.020Z,10.70
2018-12-22T10:19:42.021Z,10.70
2018-12-22T10:22:08.999Z,10.80
2018-12-22T10:24:35.939Z,10.80
2018-12-22T10:27:02.890Z,10.80
2018-12-22T10:29:29.948Z,10.80
2018-12-22T10:31:57.037Z,10.80
2018-12-22T10:34:24.042Z,10.90
2018-12-22T10:36:50.996Z,11.00
2018-12-22T10:39:17.941Z,11.00
2018-12-22T10:41:44.921Z,11.00
2018-12-22T10:44:11.864Z,11.00
2018-12-22T10:46:38.804Z,11.00
2018-12-22T10:49:05.789Z,11.10
2018-12-22T10:51:32.770Z,11.10
2018-12-22T10:53:59.726Z,11.30
2018-12-22T10:56:26.691Z,11.40
2018-12-22T10:58:53.667Z,11.40
2018-12-22T11:01:26.457Z,11.40
2018-12-22T11:03:47.576Z,11.40
2018-12-22T11:06:14.524Z,11.50
2018-12-22T11:08:42.577Z,11.50
2018-12-22T11:11:09.557Z,11.40
2018-12-22T11:13:36.952Z,11.40
2018-12-22T11:16:03.891Z,11.40
2018-12-22T11:18:30.904Z,11.10
2018-12-22T11:20:57.860Z,11.00
2018-12-22T11:23:24.807Z,11.00
2018-12-22T11:25:51.763Z,11.00
2018-12-22T11:28:18.739Z,11.00
2018-12-22T11:30:46.088Z,11.10
2018-12-22T11:33:13.109Z,11.20
2018-12-22T11:35:40.098Z,11.20
2018-12-22T11:38:07.049Z,11.20
2018-12-22T11:40:34.008Z,11.40
2018-12-22T11:43:00.940Z,11.40
2018-12-22T11:45:27.886Z,11.50
2018-12-22T11:48:09.923Z,11.40
2018-12-22T11:50:36.848Z,11.50
2018-12-22T11:53:03.808Z,11.50
2018-12-22T11:55:30.803Z,11.40
2018-12-22T11:57:57.760Z,11.20
2018-12-22T12:00:24.700Z,11.00
2018-12-22T12:02:51.654Z,11.00
2018-12-22T12:05:18.636Z,10.90
2018-12-22T12:07:45.640Z,10.90
2018-12-22T12:10:12.618Z,10.90
2018-12-22T12:12:39.565Z,11.10
2018-12-22T12:15:13.784Z,11.20
2018-12-22T12:17:52.435Z,11.40
2018-12-22T12:20:19.400Z,11.50
2018-12-22T12:22:46.371Z,11.60
2018-12-22T12:25:13.324Z,11.60
2018-12-22T12:27:40.311Z,11.70
2018-12-22T12:30:08.977Z,11.70
2018-12-22T12:32:35.938Z,11.60
2018-12-22T12:35:03.449Z,11.60
2018-12-22T12:37:30.393Z,12.20
2018-12-22T12:39:57.333Z,12.40
2018-12-22T12:42:24.295Z,12.60
2018-12-22T12:44:51.243Z,13.00
2018-12-22T12:47:18.177Z,13.70
2018-12-22T12:49:45.132Z,14.20
2018-12-22T12:52:12.080Z,14.30
2018-12-22T12:54:39.039Z,14.30
2018-12-22T12:57:06.015Z,14.20
2018-12-22T12:59:33.435Z,14.00
2018-12-22T13:02:01.697Z,13.80
2018-12-22T13:04:28.647Z,13.50
2018-12-22T13:06:55.591Z,13.30
2018-12-22T13:09:22.565Z,13.20
2018-12-22T13:11:51.453Z,13.00
2018-12-22T13:14:21.191Z,12.80
2018-12-22T13:16:48.504Z,12.60
2018-12-22T13:19:15.492Z,12.50
2018-12-22T13:21:49.061Z,12.40
2018-12-22T13:24:16.065Z,12.20
2018-12-22T13:26:43.008Z,12.00
2018-12-22T13:29:09.940Z,12.00
2018-12-22T13:31:37.134Z,11.80
2018-12-22T13:34:04.061Z,11.60
2018-12-22T13:36:34.796Z,11.60
2018-12-22T13:39:06.079Z,11.70
2018-12-22T13:41:33.068Z,11.50
2018-12-22T13:44:00.011Z,11.40
2018-12-22T13:46:26.984Z,11.40
2018-12-22T13:48:54.002Z,11.40
2018-12-22T13:51:20.962Z,11.50
2018-12-22T13:53:47.888Z,11.50
2018-12-22T13:56:14.836Z,11.50
2018-12-22T13:58:41.785Z,11.30
2018-12-22T14:01:12.311Z,11.30
2018-12-22T14:03:41.617Z,11.20
2018-12-22T14:06:14.289Z,11.20
2018-12-22T14:08:41.244Z,11.10
2018-12-22T14:11:08.216Z,11.10
2018-12-22T14:13:35.175Z,11.10
2018-12-22T14:16:16.908Z,11.10
2018-12-22T14:18:55.116Z,11.60
2018-12-22T14:21:22.053Z,12.10
2018-12-22T14:24:15.204Z,12.40
2018-12-22T14:26:42.898Z,12.60
2018-12-22T14:29:09.772Z,12.40
2018-12-22T14:31:37.526Z,12.30
2018-12-22T14:34:12.327Z,12.20
2018-12-22T14:36:39.278Z,12.20
2018-12-22T14:39:07.149Z,12.20
2018-12-22T14:41:34.079Z,12.00
2018-12-22T14:44:01.037Z,12.00
2018-12-22T14:46:27.999Z,11.90
2018-12-22T14:48:55.000Z,11.90
2018-12-22T14:51:21.959Z,11.90
2018-12-22T14:53:48.970Z,11.90
2018-12-22T14:56:16.641Z,11.90
2018-12-22T14:58:43.603Z,11.90
2018-12-22T15:01:10.533Z,11.90
2018-12-22T15:03:37.443Z,11.90
2018-12-22T15:06:04.413Z,11.80
2018-12-22T15:08:31.499Z,11.90
2018-12-22T15:10:58.425Z,11.90
2018-12-22T15:13:25.371Z,11.90
2018-12-22T15:15:52.304Z,11.80
2018-12-22T15:18:19.351Z,11.80
2018-12-22T15:20:46.763Z,11.90
2018-12-22T15:23:14.676Z,11.80
2018-12-22T15:25:41.687Z,11.90
2018-12-22T15:28:08.641Z,11.90
2018-12-22T15:30:35.579Z,11.90
2018-12-22T15:33:02.643Z,11.90
2018-12-22T15:35:29.600Z,12.00
2018-12-22T15:37:58.508Z,11.90
2018-12-22T15:40:23.481Z,11.80
2018-12-22T15:42:50.443Z,11.80
2018-12-22T15:45:18.706Z,11.80
2018-12-22T15:47:45.724Z,11.70
2018-12-22T15:50:15.203Z,11.60
2018-12-22T15:52:42.145Z,11.50
2018-12-22T15:55:09.103Z,11.50
2018-12-22T15:57:36.496Z,11.40
2018-12-22T16:00:04.615Z,11.40
2018-12-22T16:02:31.536Z,11.40
2018-12-22T16:04:58.530Z,11.30
2018-12-22T16:07:25.454Z,11.30
2018-12-22T16:09:52.470Z,11.30
2018-12-22T16:12:19.441Z,11.30
2018-12-22T16:14:46.449Z,11.30
2018-12-22T16:17:13.403Z,11.10
2018-12-22T16:19:40.373Z,10.80
2018-12-22T16:22:07.832Z,10.60
2018-12-22T16:24:34.775Z,10.40
2018-12-22T16:27:01.740Z,10.30
2018-12-22T16:29:33.823Z,10.30
2018-12-22T16:32:00.749Z,10.30
2018-12-22T16:34:27.684Z,10.20
2018-12-22T16:36:54.611Z,10.10
2018-12-22T16:39:21.561Z,10.10
2018-12-22T16:41:48.525Z,9.60
2018-12-22T16:44:17.250Z,9.90
2018-12-22T16:46:44.195Z,9.90
2018-12-22T16:49:11.179Z,10.00
2018-12-22T16:51:38.120Z,9.90
2018-12-22T16:54:05.052Z,9.40
2018-12-22T16:56:32.001Z,9.80
2018-12-22T16:59:00.042Z,9.80
2018-12-22T17:01:58.867Z,9.80
2018-12-22T17:04:25.802Z,9.80
2018-12-22T17:06:52.730Z,9.70
2018-12-22T17:09:19.677Z,9.00
2018-12-22T17:11:46.615Z,9.70
2018-12-22T17:14:13.591Z,9.70
2018-12-22T17:16:40.587Z,9.60
2018-12-22T17:19:07.502Z,9.70
2018-12-22T17:21:41.410Z,9.60
2018-12-22T17:24:14.759Z,9.60
2018-12-22T17:26:43.780Z,9.60
2018-12-22T17:29:10.728Z,9.50
2018-12-22T17:31:39.569Z,9.60
2018-12-22T17:34:12.288Z,9.60
2018-12-22T17:36:39.264Z,9.60
2018-12-22T17:39:08.834Z,9.60
2018-12-22T17:41:35.839Z,9.60
2018-12-22T17:44:02.772Z,9.60
2018-12-22T17:46:29.739Z,9.60
2018-12-22T17:48:56.735Z,9.70
2018-12-22T17:51:23.685Z,9.80
2018-12-22T17:53:50.632Z,9.70
2018-12-22T17:56:17.577Z,9.70
2018-12-22T17:58:44.541Z,9.70
2018-12-22T18:01:11.589Z,9.70
2018-12-22T18:03:38.558Z,9.70
2018-12-22T18:06:05.544Z,9.70
2018-12-22T18:08:32.524Z,9.80
2018-12-22T18:10:59.477Z,9.80
2018-12-22T18:13:28.123Z,9.80
2018-12-22T18:15:56.268Z,9.80
2018-12-22T18:18:23.221Z,9.80
2018-12-22T18:20:54.373Z,9.80
2018-12-22T18:23:21.354Z,9.80
2018-12-22T18:25:48.846Z,9.80
2018-12-22T18:28:15.787Z,9.80
2018-12-22T18:30:44.829Z,9.80
2018-12-22T18:33:11.753Z,9.90
2018-12-22T18:35:38.689Z,9.90
2018-12-22T18:38:05.636Z,9.90
2018-12-22T18:40:32.579Z,9.90
2018-12-22T18:42:59.547Z,9.90
2018-12-22T18:45:26.530Z,9.90
2018-12-22T18:47:53.471Z,9.90
2018-12-22T18:50:24.011Z,9.90
2018-12-22T18:52:50.974Z,9.90
2018-12-22T18:55:17.907Z,10.00
2018-12-22T18:57:47.271Z,10.00
2018-12-22T19:00:16.926Z,10.00
2018-12-22T19:02:43.972Z,10.00
2018-12-22T19:05:11.619Z,10.00
2018-12-22T19:07:38.639Z,10.00
2018-12-22T19:10:11.993Z,10.00
2018-12-22T19:12:38.934Z,10.00
2018-12-22T19:15:05.933Z,10.00
2018-12-22T19:17:33.440Z,10.10
2018-12-22T19:20:00.543Z,10.10
2018-12-22T19:22:27.479Z,10.00
2018-12-22T19:24:54.410Z,10.10
2018-12-22T19:27:21.676Z,10.10
2018-12-22T19:29:48.653Z,10.10
2018-12-22T19:32:15.602Z,10.00
2018-12-22T19:34:42.528Z,10.00
2018-12-22T19:37:09.844Z,10.00
2018-12-22T19:39:36.789Z,10.00
2018-12-22T19:42:03.824Z,10.00
2018-12-22T19:44:30.787Z,10.00
2018-12-22T19:46:57.779Z,9.90
2018-12-22T19:49:24.704Z,10.00
2018-12-22T19:51:51.692Z,9.90
2018-12-22T19:54:18.645Z,10.00
2018-12-22T19:56:45.580Z,10.00
2018-12-22T19:59:12.691Z,10.00
2018-12-22T20:01:39.623Z,10.00
2018-12-22T20:04:06.569Z,9.90
2018-12-22T20:06:33.548Z,10.00
2018-12-22T20:09:00.483Z,10.00
2018-12-22T20:11:27.431Z,9.90
2018-12-22T20:13:54.533Z,9.90
2018-12-22T20:16:21.360Z,10.00
2018-12-22T20:18:48.317Z,10.00
2018-12-22T20:21:15.271Z,9.90
2018-12-22T20:23:42.200Z,10.10
2018-12-22T20:26:09.126Z,10.00
2018-12-22T20:28:36.904Z,9.90
2018-12-22T20:31:03.877Z,9.90
2018-12-22T20:33:30.852Z,9.90
2018-12-22T20:35:57.808Z,9.80
2018-12-22T20:38:24.761Z,9.90
2018-12-22T20:40:51.802Z,9.90
2018-12-22T20:43:18.812Z,10.00
2018-12-22T20:45:45.744Z,10.00
2018-12-22T20:48:12.691Z,10.00
2018-12-22T20:50:39.657Z,10.10
2018-12-22T20:53:06.630Z,10.00
2018-12-22T20:55:33.556Z,10.00
2018-12-22T20:58:00.540Z,9.90
2018-12-22T21:00:27.510Z,10.00
2018-12-22T21:02:54.436Z,10.00
2018-12-22T21:05:21.449Z,10.00
2018-12-22T21:07:48.401Z,10.00
2018-12-22T21:10:15.347Z,10.00
2018-12-22T21:12:42.328Z,10.10
2018-12-22T21:15:09.271Z,10.00
2018-12-22T21:17:36.210Z,10.00
2018-12-22T21:20:03.161Z,10.00
2018-12-22T21:22:30.199Z,9.90
2018-12-22T21:24:57.239Z,9.90
2018-12-22T21:27:24.183Z,9.90
2018-12-22T21:29:51.632Z,9.90
2018-12-22T21:32:18.576Z,9.80
2018-12-22T21:34:45.539Z,9.80
2018-12-22T21:37:12.481Z,9.80
2018-12-22T21:39:39.432Z,9.80
2018-12-22T21:42:06.436Z,9.80
2018-12-22T21:44:33.420Z,9.80
2018-12-22T21:47:00.347Z,9.80
2018-12-22T21:49:27.303Z,9.90
2018-12-22T21:51:54.264Z,9.80
2018-12-22T21:54:21.294Z,9.80
2018-12-22T21:56:48.258Z,9.80
2018-12-22T21:59:15.214Z,9.80
2018-12-22T22:01:42.155Z,9.70
2018-12-22T22:04:09.100Z,9.70
2018-12-22T22:06:36.671Z,9.70
2018-12-22T22:09:04.553Z,9.70
2018-12-22T22:11:31.512Z,9.80
2018-12-22T22:13:58.467Z,9.90
2018-12-22T22:16:25.422Z,9.80
2018-12-22T22:18:52.399Z,9.80
2018-12-22T22:21:19.341Z,9.90
2018-12-22T22:23:46.310Z,9.80
2018-12-22T22:26:13.273Z,9.80
2018-12-22T22:28:40.252Z,9.90
2018-12-22T22:31:07.433Z,9.80
2018-12-22T22:33:34.409Z,9.90
2018-12-22T22:36:01.354Z,9.80
2018-12-22T22:38:28.564Z,9.90
2018-12-22T22:40:55.539Z,9.90
2018-12-22T22:43:23.394Z,9.80
2018-12-22T22:45:51.378Z,9.80
2018-12-22T22:48:18.392Z,9.80
2018-12-22T22:50:45.339Z,9.80
2018-12-22T22:53:12.284Z,9.70
2018-12-22T22:55:45.312Z,9.70
2018-12-22T22:58:12.360Z,9.70
2018-12-22T23:00:39.419Z,9.70
2018-12-22T23:03:06.444Z,9.80
2018-12-22T23:05:33.385Z,9.70
2018-12-22T23:08:00.387Z,9.70
2018-12-22T23:10:27.809Z,9.70
2018-12-22T23:12:54.839Z,9.90
2018-12-22T23:15:21.704Z,9.70
2018-12-22T23:17:48.661Z,9.80
2018-12-22T23:20:15.599Z,9.60
2018-12-22T23:22:42.549Z,9.60
2018-12-22T23:25:09.500Z,9.60
2018-12-22T23:27:36.445Z,9.60
2018-12-22T23:30:03.729Z,9.60
2018-12-22T23:32:30.892Z,9.50
2018-12-22T23:35:02.905Z,9.40
2018-12-22T23:37:24.780Z,9.40
2018-12-22T23:39:51.725Z,9.30
2018-12-22T23:42:18.665Z,9.30
2018-12-22T23:44:45.614Z,8.60
2018-12-22T23:47:12.597Z,9.20
2018-12-22T23:49:39.547Z,9.10
2018-12-22T23:52:06.489Z,9.10
2018-12-22T23:54:33.449Z,9.10
2018-12-22T23:57:00.395Z,9.10
2018-12-22T23:59:27.340Z,9.10
